createdAt,value
2022-10-15T00:02:54.890Z,100427.34
2022-10-15T00:05:56.519Z,100425.78
2022-10-15T00:08:58.115Z,100429.69
2022-10-15T00:11:59.700Z,100430.09
2022-10-15T00:15:01.205Z,100419.78
2022-10-15T00:18:02.796Z,100422.72
2022-10-15T00:21:09.685Z,100414.22
2022-10-15T00:24:11.254Z,100417.28
2022-10-15T00:27:12.772Z,100422.03
2022-10-15T00:30:14.357Z,100421.31
2022-10-15T00:33:15.912Z,100421.56
2022-10-15T00:36:23.516Z,100414.66
2022-10-15T00:39:25.156Z,100422.09
2022-10-15T00:42:26.806Z,100421.34
2022-10-15T00:45:28.455Z,100417.25
2022-10-15T00:48:31.692Z,100419.59
2022-10-15T00:51:40.941Z,100423.31
2022-10-15T00:54:49.672Z,100413.84
2022-10-15T00:57:51.690Z,100421.38
2022-10-15T01:00:54.345Z,100423.34
2022-10-15T01:03:55.997Z,100413.91
2022-10-15T01:06:57.930Z,100408.78
2022-10-15T01:10:00.523Z,100412.72
2022-10-15T01:13:15.366Z,100413.91
2022-10-15T01:16:30.145Z,100410.75
2022-10-15T01:19:56.615Z,100402.28
2022-10-15T01:23:25.208Z,100406.19
2022-10-15T01:26:40.303Z,100404.84
2022-10-15T01:29:47.820Z,100406.94
2022-10-15T01:33:16.441Z,100412.63
2022-10-15T01:36:46.949Z,100404.25
2022-10-15T01:39:57.628Z,100404.75
2022-10-15T01:43:12.060Z,100403.31
2022-10-15T01:46:32.184Z,100403.53
2022-10-15T01:49:41.588Z,100403.53
2022-10-15T01:52:44.888Z,100404.53
2022-10-15T01:55:48.634Z,100400.88
2022-10-15T01:58:53.478Z,100404.53
2022-10-15T02:01:57.887Z,100401.00
2022-10-15T02:04:59.816Z,100396.53
2022-10-15T02:08:22.159Z,100392.03
2022-10-15T02:11:23.783Z,100384.03
2022-10-15T02:14:35.058Z,100388.38
2022-10-15T02:17:48.901Z,100392.75
2022-10-15T02:21:02.843Z,100390.09
2022-10-15T02:24:14.977Z,100385.47
2022-10-15T02:27:16.888Z,100377.47
2022-10-15T02:30:19.256Z,100376.63
2022-10-15T02:33:22.693Z,100383.66
2022-10-15T02:36:24.512Z,100377.34
2022-10-15T02:39:26.271Z,100376.38
2022-10-15T02:42:28.210Z,100372.84
2022-10-15T02:45:29.781Z,100373.72
2022-10-15T02:48:31.300Z,100375.38
2022-10-15T02:51:34.379Z,100371.91
2022-10-15T02:54:35.927Z,100365.69
2022-10-15T02:57:37.524Z,100364.00
2022-10-15T03:00:39.297Z,100360.50
2022-10-15T03:03:40.857Z,100365.84
2022-10-15T03:06:42.568Z,100362.31
2022-10-15T03:09:44.110Z,100369.47
2022-10-15T03:12:45.641Z,100370.41
2022-10-15T03:15:47.180Z,100372.28
2022-10-15T03:18:48.731Z,100369.59
2022-10-15T03:21:50.237Z,100365.22
2022-10-15T03:24:51.751Z,100367.75
2022-10-15T03:27:53.293Z,100371.41
2022-10-15T03:30:54.864Z,100373.38
2022-10-15T03:33:56.847Z,100376.84
2022-10-15T03:36:58.384Z,100368.03
2022-10-15T03:39:59.904Z,100375.91
2022-10-15T03:43:01.451Z,100365.22
2022-10-15T03:46:04.282Z,100369.59
2022-10-15T03:49:05.782Z,100372.28
2022-10-15T03:52:07.641Z,100369.59
2022-10-15T03:55:10.757Z,100366.94
2022-10-15T03:58:12.300Z,100362.69
2022-10-15T04:01:18.060Z,100353.81
2022-10-15T04:04:19.903Z,100356.38
2022-10-15T04:07:21.871Z,100357.22
2022-10-15T04:10:23.562Z,100359.88
2022-10-15T04:13:26.080Z,100358.19
2022-10-15T04:16:27.616Z,100352.84
2022-10-15T04:19:29.156Z,100350.16
2022-10-15T04:22:30.652Z,100359.75
2022-10-15T04:25:32.206Z,100352.59
2022-10-15T04:28:33.782Z,100352.59
2022-10-15T04:31:35.568Z,100357.06
2022-10-15T04:34:37.092Z,100367.66
2022-10-15T04:37:38.625Z,100368.59
2022-10-15T04:40:41.184Z,100373.09
2022-10-15T04:43:42.706Z,100373.09
2022-10-15T04:46:44.326Z,100374.94
2022-10-15T04:49:45.886Z,100372.28
2022-10-15T04:52:48.582Z,100373.22
2022-10-15T04:55:50.133Z,100373.22
2022-10-15T04:58:51.720Z,100376.84
2022-10-15T05:01:53.288Z,100378.69
2022-10-15T05:04:55.074Z,100368.84
2022-10-15T05:08:00.353Z,100373.38
2022-10-15T05:11:07.080Z,100373.47
2022-10-15T05:14:09.186Z,100374.44
2022-10-15T05:17:10.722Z,100375.41
2022-10-15T05:20:12.238Z,100379.91
2022-10-15T05:23:13.962Z,100383.41
2022-10-15T05:26:18.357Z,100388.75
2022-10-15T05:29:20.052Z,100386.09
2022-10-15T05:35:25.903Z,100386.09
2022-10-15T05:38:27.440Z,100385.38
2022-10-15T05:41:29.669Z,100388.03
2022-10-15T05:44:31.180Z,100394.22
2022-10-15T05:47:32.725Z,100396.03
2022-10-15T05:50:34.268Z,100396.16
2022-10-15T05:53:36.575Z,100391.66
2022-10-15T05:56:38.153Z,100401.47
2022-10-15T05:59:39.661Z,100404.97
2022-10-15T06:02:41.340Z,100404.00
2022-10-15T06:05:42.909Z,100398.97
2022-10-15T06:08:44.972Z,100397.03
2022-10-15T06:11:47.117Z,100394.50
2022-10-15T06:14:48.652Z,100396.69
2022-10-15T06:17:53.362Z,100395.25
2022-10-15T06:20:54.953Z,100399.13
2022-10-15T06:23:56.592Z,100399.41
2022-10-15T06:26:59.952Z,100405.94
2022-10-15T06:30:01.613Z,100396.50
2022-10-15T06:33:03.546Z,100396.75
2022-10-15T06:36:07.678Z,100400.50
2022-10-15T06:39:09.465Z,100405.13
2022-10-15T06:42:10.980Z,100405.22
2022-10-15T06:45:13.429Z,100406.22
2022-10-15T06:48:15.652Z,100408.16
2022-10-15T06:51:17.481Z,100417.13
2022-10-15T06:54:18.973Z,100412.75
2022-10-15T06:57:20.592Z,100408.41
2022-10-15T07:00:23.102Z,100412.88
2022-10-15T07:03:24.705Z,100410.22
2022-10-15T07:06:26.305Z,100419.06
2022-10-15T07:09:27.946Z,100418.09
2022-10-15T07:12:29.450Z,100427.94
2022-10-15T07:15:30.996Z,100430.59
2022-10-15T07:18:32.989Z,100432.19
2022-10-15T07:21:34.581Z,100431.31
2022-10-15T07:24:36.368Z,100433.50
2022-10-15T07:27:41.512Z,100430.19
2022-10-15T07:30:43.167Z,100433.84
2022-10-15T07:33:44.772Z,100440.03
2022-10-15T07:36:46.271Z,100436.50
2022-10-15T07:39:47.961Z,100443.81
2022-10-15T07:42:54.291Z,100434.94
2022-10-15T07:45:56.136Z,100435.78
2022-10-15T07:48:57.680Z,100427.63
2022-10-15T07:51:59.457Z,100428.97
2022-10-15T07:55:01.002Z,100434.78
2022-10-15T07:58:03.934Z,100431.13
2022-10-15T08:01:06.576Z,100424.09
2022-10-15T08:04:08.093Z,100428.72
2022-10-15T08:07:10.417Z,100420.81
2022-10-15T08:10:13.433Z,100425.31
2022-10-15T08:13:15.046Z,100423.38
2022-10-15T08:16:19.530Z,100422.53
2022-10-15T08:19:21.066Z,100431.41
2022-10-15T08:22:22.742Z,100426.88
2022-10-15T08:25:25.041Z,100429.44
2022-10-15T08:28:27.926Z,100417.78
2022-10-15T08:31:29.512Z,100417.66
2022-10-15T08:34:31.136Z,100413.91
2022-10-15T08:37:32.733Z,100413.66
2022-10-15T08:40:34.400Z,100409.88
2022-10-15T08:43:40.248Z,100414.13
2022-10-15T08:46:46.305Z,100419.31
2022-10-15T08:49:51.972Z,100427.91
2022-10-15T08:52:54.510Z,100423.94
2022-10-15T08:56:03.426Z,100425.25
2022-10-15T08:59:26.589Z,100423.78
2022-10-15T09:02:38.282Z,100424.25
2022-10-15T09:05:58.117Z,100438.91
2022-10-15T09:09:18.049Z,100434.91
2022-10-15T09:12:31.691Z,100432.28
2022-10-15T09:15:41.163Z,100419.00
2022-10-15T09:18:46.604Z,100432.56
2022-10-15T09:21:50.982Z,100433.03
2022-10-15T09:24:53.702Z,100436.28
2022-10-15T09:27:56.708Z,100431.53
2022-10-15T09:30:59.797Z,100431.38
2022-10-15T09:34:14.893Z,100428.59
2022-10-15T09:37:48.703Z,100426.38
2022-10-15T09:41:26.683Z,100412.00
2022-10-15T09:44:36.672Z,100419.78
2022-10-15T09:47:41.091Z,100419.38
2022-10-15T09:50:56.888Z,100414.06
2022-10-15T09:54:15.349Z,100420.13
2022-10-15T09:57:19.664Z,100411.16
2022-10-15T10:00:21.326Z,100408.94
2022-10-15T10:03:25.908Z,100403.00
2022-10-15T10:06:27.461Z,100412.38
2022-10-15T10:09:33.443Z,100413.84
2022-10-15T10:12:36.459Z,100407.84
2022-10-15T10:15:42.116Z,100411.09
2022-10-15T10:18:51.005Z,100412.38
2022-10-15T10:22:14.797Z,100404.03
2022-10-15T10:25:27.771Z,100400.91
2022-10-15T10:28:34.735Z,100415.06
2022-10-15T10:31:42.575Z,100405.16
2022-10-15T10:34:48.719Z,100405.16
2022-10-15T10:37:53.945Z,100408.94
2022-10-15T10:41:09.605Z,100405.13
2022-10-15T10:44:22.907Z,100404.25
2022-10-15T10:47:27.057Z,100400.03
2022-10-15T10:50:33.049Z,100402.41
2022-10-15T10:53:39.921Z,100403.63
2022-10-15T10:56:44.207Z,100399.59
2022-10-15T10:59:53.856Z,100403.06
2022-10-15T11:02:57.139Z,100395.41
2022-10-15T11:06:07.843Z,100399.66
2022-10-15T11:09:47.957Z,100394.38
2022-10-15T11:13:12.739Z,100397.00
2022-10-15T11:17:06.623Z,100389.75
2022-10-15T11:20:44.237Z,100384.63
2022-10-15T11:23:51.811Z,100387.53
2022-10-15T11:27:21.236Z,100381.84
2022-10-15T11:30:56.545Z,100377.88
2022-10-15T11:34:04.006Z,100374.34
2022-10-15T11:37:23.476Z,100376.19
2022-10-15T11:40:44.033Z,100384.25
2022-10-15T11:44:21.953Z,100377.88
2022-10-15T11:47:35.295Z,100373.19
2022-10-15T11:50:47.620Z,100382.63
2022-10-15T11:54:01.480Z,100367.34
2022-10-15T11:57:05.088Z,100367.50
2022-10-15T12:00:34.260Z,100369.47
2022-10-15T12:03:51.313Z,100358.72
2022-10-15T12:06:57.069Z,100367.19
2022-10-15T12:10:09.913Z,100364.34
2022-10-15T12:13:26.018Z,100365.50
2022-10-15T12:16:40.983Z,100355.06
2022-10-15T12:20:29.019Z,100346.06
2022-10-15T12:23:36.658Z,100349.84
2022-10-15T12:26:38.321Z,100350.69
2022-10-15T12:29:39.888Z,100346.81
2022-10-15T12:32:46.556Z,100348.25
2022-10-15T12:35:56.838Z,100344.31
2022-10-15T12:39:05.897Z,100328.94
2022-10-15T12:42:31.108Z,100334.22
2022-10-15T12:45:40.444Z,100326.78
2022-10-15T12:48:46.877Z,100300.38
2022-10-15T12:51:51.512Z,100293.16
2022-10-15T12:55:26.332Z,100285.06
2022-10-15T12:58:37.109Z,100284.44
2022-10-15T13:01:44.589Z,100277.78
2022-10-15T13:04:47.100Z,100280.13
2022-10-15T13:07:49.191Z,100283.75
2022-10-15T13:10:57.960Z,100292.03
2022-10-15T13:14:02.500Z,100290.22
2022-10-15T13:17:15.744Z,100277.06
2022-10-15T13:20:34.665Z,100281.75
2022-10-15T13:23:36.236Z,100277.53
2022-10-15T13:26:37.768Z,100282.06
2022-10-15T13:29:39.389Z,100267.38
2022-10-15T13:32:48.147Z,100273.09
2022-10-15T13:35:49.726Z,100269.72
2022-10-15T13:38:54.288Z,100279.75
2022-10-15T13:42:17.037Z,100272.00
2022-10-15T13:45:18.768Z,100270.47
2022-10-15T13:48:32.515Z,100275.13
2022-10-15T13:51:43.702Z,100265.88
2022-10-15T13:54:47.003Z,100261.09
2022-10-15T13:57:50.060Z,100252.34
2022-10-15T14:00:58.240Z,100250.13
2022-10-15T14:04:01.832Z,100245.88
2022-10-15T14:07:21.092Z,100253.09
2022-10-15T14:10:22.733Z,100248.72
2022-10-15T14:13:24.587Z,100242.34
2022-10-15T14:16:31.425Z,100249.56
2022-10-15T14:19:35.617Z,100253.09
2022-10-15T14:22:37.195Z,100240.66
2022-10-15T14:25:38.738Z,100240.66
2022-10-15T14:28:41.616Z,100248.72
2022-10-15T14:31:47.285Z,100247.88
2022-10-15T14:34:49.725Z,100242.06
2022-10-15T14:38:25.724Z,100244.88
2022-10-15T14:41:32.344Z,100254.25
2022-10-15T14:44:48.164Z,100250.19
2022-10-15T14:47:59.104Z,100251.47
2022-10-15T14:51:05.768Z,100247.22
2022-10-15T14:54:19.047Z,100252.19
2022-10-15T14:57:25.262Z,100256.19
2022-10-15T15:00:33.755Z,100258.31
2022-10-15T15:03:41.194Z,100254.09
2022-10-15T15:06:42.719Z,100255.41
2022-10-15T15:09:48.008Z,100242.22
2022-10-15T15:12:53.039Z,100241.53
2022-10-15T15:15:54.803Z,100243.66
2022-10-15T15:18:58.335Z,100242.44
2022-10-15T15:21:59.916Z,100247.09
2022-10-15T15:25:06.933Z,100246.28
2022-10-15T15:28:17.088Z,100241.88
2022-10-15T15:31:19.128Z,100242.19
2022-10-15T15:34:20.672Z,100250.38
2022-10-15T15:37:24.602Z,100241.66
2022-10-15T15:40:26.888Z,100239.09
2022-10-15T15:43:28.461Z,100240.22
2022-10-15T15:46:30.104Z,100241.53
2022-10-15T15:49:31.614Z,100240.84
2022-10-15T15:52:36.148Z,100238.59
2022-10-15T15:55:38.986Z,100230.69
2022-10-15T15:58:40.525Z,100235.19
2022-10-15T16:01:42.129Z,100230.00
2022-10-15T16:04:45.480Z,100224.91
2022-10-15T16:07:47.041Z,100230.56
2022-10-15T16:10:48.557Z,100227.34
2022-10-15T16:13:50.179Z,100230.88
2022-10-15T16:16:51.725Z,100234.38
2022-10-15T16:19:53.275Z,100233.69
2022-10-15T16:22:54.863Z,100236.66
2022-10-15T16:25:57.597Z,100244.00
2022-10-15T16:28:59.169Z,100241.19
2022-10-15T16:32:00.725Z,100235.84
2022-10-15T16:35:02.341Z,100249.09
2022-10-15T16:38:03.920Z,100258.94
2022-10-15T16:41:05.684Z,100251.59
2022-10-15T16:44:07.595Z,100241.88
2022-10-15T16:47:09.110Z,100245.50
2022-10-15T16:50:10.721Z,100245.91
2022-10-15T16:53:12.248Z,100246.09
2022-10-15T16:56:18.300Z,100252.41
2022-10-15T16:59:20.485Z,100256.97
2022-10-15T17:02:22.081Z,100264.84
2022-10-15T17:05:23.797Z,100267.94
2022-10-15T17:08:33.304Z,100269.50
2022-10-15T17:11:40.113Z,100265.09
2022-10-15T17:14:41.704Z,100277.53
2022-10-15T17:17:43.268Z,100285.44
2022-10-15T17:20:46.560Z,100280.91
2022-10-15T17:23:50.385Z,100292.50
2022-10-15T17:26:51.979Z,100297.84
2022-10-15T17:29:53.529Z,100302.22
2022-10-15T17:32:55.127Z,100303.91
2022-10-15T17:35:56.643Z,100309.00
2022-10-15T17:38:59.387Z,100309.00
2022-10-15T17:42:00.963Z,100313.34
2022-10-15T17:45:02.642Z,100309.69
2022-10-15T17:48:04.258Z,100315.06
2022-10-15T17:51:07.767Z,100307.84
2022-10-15T17:54:09.368Z,100309.69
2022-10-15T17:57:10.894Z,100317.03
2022-10-15T18:00:13.008Z,100327.91
2022-10-15T18:03:14.515Z,100334.28
2022-10-15T18:06:18.295Z,100337.94
2022-10-15T18:09:19.836Z,100331.88
2022-10-15T18:12:21.367Z,100334.72
2022-10-15T18:15:23.372Z,100346.31
2022-10-15T18:18:26.213Z,100351.66
2022-10-15T18:21:28.523Z,100370.56
2022-10-15T18:24:30.053Z,100374.94
2022-10-15T18:27:31.619Z,100375.66
2022-10-15T18:30:38.184Z,100379.03
2022-10-15T18:33:42.913Z,100383.41
2022-10-15T18:36:46.697Z,100388.78
2022-10-15T18:39:48.267Z,100405.84
2022-10-15T18:42:49.807Z,100398.94
2022-10-15T18:45:51.342Z,100408.97
2022-10-15T18:48:52.893Z,100420.81
2022-10-15T18:51:55.438Z,100421.97
2022-10-15T18:54:57.046Z,100426.47
2022-10-15T18:58:01.884Z,100438.22
2022-10-15T19:01:22.282Z,100452.59
2022-10-15T19:04:26.953Z,100450.06
2022-10-15T19:07:31.606Z,100453.72
2022-10-15T19:10:33.368Z,100448.50
2022-10-15T19:13:36.650Z,100460.22
2022-10-15T19:16:38.916Z,100459.63
2022-10-15T19:19:40.496Z,100460.75
2022-10-15T19:22:42.084Z,100463.59
2022-10-15T19:25:43.694Z,100462.03
2022-10-15T19:28:46.815Z,100473.03
2022-10-15T19:31:49.908Z,100479.41
2022-10-15T19:34:51.508Z,100470.94
2022-10-15T19:37:53.064Z,100495.19
2022-10-15T19:40:54.915Z,100495.50
2022-10-15T19:43:56.511Z,100494.91
2022-10-15T19:46:58.091Z,100490.09
2022-10-15T19:49:59.597Z,100492.31
2022-10-15T19:53:01.164Z,100503.34
2022-10-15T19:56:06.128Z,100499.81
2022-10-15T19:59:07.805Z,100515.97
2022-10-15T20:02:12.031Z,100513.59
2022-10-15T20:05:13.604Z,100511.19
2022-10-15T20:08:16.112Z,100510.47
2022-10-15T20:11:19.091Z,100511.34
2022-10-15T20:14:20.629Z,100508.34
2022-10-15T20:17:22.658Z,100509.06
2022-10-15T20:20:24.377Z,100509.91
2022-10-15T20:23:26.557Z,100521.63
2022-10-15T20:26:28.183Z,100532.63
2022-10-15T20:29:29.737Z,100540.94
2022-10-15T20:32:35.323Z,100534.84
2022-10-15T20:35:38.257Z,100538.91
2022-10-15T20:38:40.209Z,100541.16
2022-10-15T20:41:41.734Z,100546.66
2022-10-15T20:44:43.260Z,100556.66
2022-10-15T20:47:50.143Z,100571.19
2022-10-15T20:50:53.445Z,100578.63
2022-10-15T20:53:55.688Z,100579.03
2022-10-15T20:56:57.400Z,100577.59
2022-10-15T20:59:59.068Z,100581.25
2022-10-15T21:03:00.644Z,100596.63
2022-10-15T21:06:02.247Z,100595.03
2022-10-15T21:09:03.992Z,100585.56
2022-10-15T21:12:06.014Z,100587.66
2022-10-15T21:15:07.960Z,100588.63
2022-10-15T21:18:09.524Z,100590.47
2022-10-15T21:21:13.223Z,100580.59
2022-10-15T21:24:15.137Z,100588.78
2022-10-15T21:27:16.730Z,100589.91
2022-10-15T21:30:18.300Z,100590.00
2022-10-15T21:33:19.872Z,100592.81
2022-10-15T21:36:26.999Z,100585.03
2022-10-15T21:39:28.637Z,100584.47
2022-10-15T21:42:30.892Z,100584.47
2022-10-15T21:45:32.438Z,100588.25
2022-10-15T21:48:36.611Z,100593.63
2022-10-15T21:51:38.277Z,100598.38
2022-10-15T21:54:39.942Z,100599.63
2022-10-15T21:57:41.492Z,100598.75
2022-10-15T22:00:43.037Z,100605.94
2022-10-15T22:03:45.307Z,100605.22
2022-10-15T22:06:47.315Z,100607.19
2022-10-15T22:09:48.913Z,100615.47
2022-10-15T22:12:52.405Z,100617.53
2022-10-15T22:15:53.928Z,100614.50
2022-10-15T22:18:57.214Z,100624.47
2022-10-15T22:21:58.787Z,100615.63
2022-10-15T22:25:00.355Z,100626.56
2022-10-15T22:28:01.877Z,100623.50
2022-10-15T22:31:05.183Z,100621.09
2022-10-15T22:34:06.711Z,100619.66
2022-10-15T22:37:08.291Z,100633.31
2022-10-15T22:40:11.980Z,100628.19
2022-10-15T22:43:13.668Z,100630.25
2022-10-15T22:46:15.196Z,100630.50
2022-10-15T22:49:19.741Z,100623.47
2022-10-15T22:52:21.278Z,100623.72
2022-10-15T22:55:22.797Z,100631.13
2022-10-15T22:58:25.564Z,100626.78
2022-10-15T23:01:29.576Z,100642.13
2022-10-15T23:04:31.214Z,100640.41
2022-10-15T23:07:32.725Z,100644.03
2022-10-15T23:10:34.297Z,100636.28
2022-10-15T23:13:35.917Z,100638.22
2022-10-15T23:16:45.760Z,100637.50
2022-10-15T23:19:48.469Z,100629.75
2022-10-15T23:22:49.951Z,100642.38
2022-10-15T23:25:51.503Z,100653.22
2022-10-15T23:28:56.199Z,100654.31
2022-10-15T23:31:57.795Z,100649.91
2022-10-15T23:34:59.351Z,100655.41
2022-10-15T23:38:00.875Z,100651.28
2022-10-15T23:41:04.832Z,100649.56
2022-10-15T23:44:06.517Z,100651.53
2022-10-15T23:47:08.300Z,100659.78
2022-10-15T23:50:09.856Z,100657.25
2022-10-15T23:53:11.443Z,100656.50
2022-10-15T23:56:13.365Z,100662.94
2022-10-15T23:59:17.145Z,100665.75
